Time;durP1;ratioP1;P1;durP2;ratioP2;P2;SDS_P1;SDS_P2;PMS_P1;PMS_P2;Temp;Humidity;BMP_temperature;BMP_pressure;BME280_temperature;BME280_humidity;BME280_pressure;Samples;Min_cycle;Max_cycle;Signal;HPM_P1;HPM_P2
2021/08/13 00:00:16;;;;;;;27.67;22.17;;;18.80;99.90;;;;;;5095643;28;20024;-63
2021/08/13 00:05:23;;;;;;;26.23;21.88;;;18.70;99.90;;;;;;5113809;28;20058;-64
2021/08/13 00:07:49;;;;;;;28.88;22.90;;;18.70;99.90;;;;;;5097851;28;20400;-64
2021/08/13 00:10:15;;;;;;;26.00;22.10;;;18.70;99.90;;;;;;5116038;28;20023;-64
2021/08/13 00:12:40;;;;;;;27.40;22.75;;;18.70;99.90;;;;;;5116197;28;20038;-64
2021/08/13 00:15:06;;;;;;;26.10;21.38;;;18.50;99.90;;;;;;5097063;28;20023;-63
2021/08/13 00:17:32;;;;;;;27.35;21.88;;;18.50;99.90;;;;;;5114254;28;20064;-64
2021/08/13 00:19:57;;;;;;;25.35;21.90;;;18.50;99.90;;;;;;5097710;28;20059;-64
2021/08/13 00:22:23;;;;;;;28.00;22.50;;;18.50;99.90;;;;;;5095914;28;20027;-64
2021/08/13 00:24:51;;;;;;;26.48;22.13;;;18.50;99.90;;;;;;5115333;28;20046;-64
2021/08/13 00:27:16;;;;;;;27.67;23.10;;;18.50;99.90;;;;;;5115286;28;20020;-64
2021/08/13 00:29:42;;;;;;;28.50;22.88;;;18.50;99.90;;;;;;5115874;28;20081;-64
2021/08/13 00:32:08;;;;;;;27.95;22.55;;;18.50;99.90;;;;;;5096513;28;20035;-64
2021/08/13 00:34:33;;;;;;;24.50;21.35;;;18.40;99.90;;;;;;5097478;28;20043;-63
2021/08/13 00:36:59;;;;;;;30.85;23.67;;;18.40;99.90;;;;;;5096376;28;20023;-63
2021/08/13 00:39:24;;;;;;;26.98;22.70;;;18.40;99.90;;;;;;5115771;28;20160;-64
2021/08/13 00:41:50;;;;;;;27.15;23.35;;;18.30;99.90;;;;;;5115534;28;20072;-64
2021/08/13 00:44:16;;;;;;;26.83;23.05;;;18.30;99.90;;;;;;5115788;28;20080;-64
2021/08/13 00:46:41;;;;;;;27.23;22.70;;;18.30;99.90;;;;;;5115053;28;20023;-64
2021/08/13 00:49:07;;;;;;;28.17;23.25;;;18.30;99.90;;;;;;5115057;28;20032;-66
2021/08/13 00:51:32;;;;;;;27.10;22.45;;;18.20;99.90;;;;;;5114731;28;20106;-64
2021/08/13 00:53:58;;;;;;;28.83;23.92;;;18.20;99.90;;;;;;5115389;28;20028;-64
2021/08/13 00:56:25;;;;;;;30.05;24.42;;;18.20;99.90;;;;;;5114587;28;20098;-64
2021/08/13 00:58:51;;;;;;;28.83;23.70;;;18.20;99.90;;;;;;5115227;28;20050;-64
2021/08/13 01:01:18;;;;;;;27.40;23.92;;;18.20;99.90;;;;;;5114583;28;20016;-64
2021/08/13 01:03:44;;;;;;;27.90;22.27;;;18.10;99.90;;;;;;5095834;28;20039;-64
2021/08/13 01:06:12;;;;;;;28.45;22.80;;;18.20;99.90;;;;;;5095384;28;20573;-63
2021/08/13 01:08:38;;;;;;;28.92;23.42;;;;;;;;;;5114276;28;20020;-64
2021/08/13 01:11:20;;;;;;;28.80;24.30;;;;;;;;;;5114507;28;20055;-64
2021/08/13 01:13:57;;;;;;;29.98;24.40;;;;;;;;;;5114036;28;20059;-63
2021/08/13 01:16:26;;;;;;;38.35;24.85;;;;;;;;;;5112349;28;20031;-64
2021/08/13 01:18:57;;;;;;;27.55;23.63;;;;;;;;;;5112728;28;20020;-64
2021/08/13 01:21:42;;;;;;;27.58;24.58;;;;;;;;;;5112908;28;20459;-64
2021/08/13 01:24:09;;;;;;;28.15;23.25;;;;;;;;;;5112130;28;20073;-64
2021/08/13 01:26:39;;;;;;;26.88;23.95;;;;;;;;;;5111765;28;20046;-64
2021/08/13 01:29:18;;;;;;;31.50;24.65;;;;;;;;;;5112511;28;20034;-64
2021/08/13 01:32:03;;;;;;;27.98;23.48;;;;;;;;;;5096150;28;20051;-64
2021/08/13 01:34:30;;;;;;;27.67;23.48;;;;;;;;;;5112530;28;20024;-63
2021/08/13 01:36:58;;;;;;;27.77;23.77;;;;;;;;;;5111786;28;20479;-65
2021/08/13 01:39:28;;;;;;;30.75;25.52;;;18.10;99.90;;;;;;5095243;28;20023;-64
2021/08/13 01:41:54;;;;;;;30.45;25.08;;;17.90;99.90;;;;;;5113329;28;20012;-65
2021/08/13 01:44:20;;;;;;;28.30;24.80;;;17.90;99.90;;;;;;5094868;28;20019;-65
2021/08/13 01:46:47;;;;;;;30.42;24.80;;;17.90;99.90;;;;;;5112581;28;20555;-64
2021/08/13 01:49:14;;;;;;;26.98;23.85;;;17.90;99.90;;;;;;5113290;28;20107;-65
2021/08/13 01:51:40;;;;;;;32.53;25.55;;;17.90;99.90;;;;;;5094959;28;20027;-65
2021/08/13 01:54:06;;;;;;;33.05;23.77;;;18.00;99.90;;;;;;5113050;28;20023;-65
2021/08/13 01:56:33;;;;;;;30.42;24.73;;;18.00;99.90;;;;;;5093907;28;20019;-64
2021/08/13 01:59:01;;;;;;;27.85;24.25;;;18.10;99.90;;;;;;5094948;28;20035;-66
2021/08/13 02:01:28;;;;;;;27.85;23.52;;;18.10;99.90;;;;;;5095036;28;20023;-65
2021/08/13 02:03:54;;;;;;;30.80;25.35;;;18.00;99.90;;;;;;5112794;28;20065;-63
2021/08/13 02:06:21;;;;;;;30.73;24.40;;;18.00;99.90;;;;;;5093938;28;20087;-65
2021/08/13 02:08:47;;;;;;;28.38;23.35;;;17.90;99.90;;;;;;5113250;28;20105;-64
2021/08/13 02:11:13;;;;;;;29.80;23.70;;;17.90;99.90;;;;;;5113077;28;20023;-64
2021/08/13 02:13:39;;;;;;;26.98;24.08;;;17.90;99.90;;;;;;5094842;28;20467;-65
2021/08/13 02:16:12;;;;;;;28.70;24.42;;;17.80;99.90;;;;;;5112136;28;20098;-65
2021/08/13 02:18:43;;;;;;;27.30;22.80;;;17.80;99.90;;;;;;5094455;28;20015;-65
2021/08/13 02:21:13;;;;;;;30.15;25.38;;;17.80;99.90;;;;;;5094464;28;20085;-65
2021/08/13 02:23:39;;;;;;;27.92;24.08;;;17.80;99.90;;;;;;5092713;28;20499;-65
2021/08/13 02:26:05;;;;;;;33.75;25.27;;;17.80;99.90;;;;;;5112034;28;20020;-65
2021/08/13 02:28:30;;;;;;;29.35;25.00;;;17.80;99.90;;;;;;5112458;28;20023;-65
2021/08/13 02:30:56;;;;;;;31.83;24.85;;;17.70;99.90;;;;;;5112699;28;20031;-64
2021/08/13 02:33:22;;;;;;;28.05;24.83;;;17.70;99.90;;;;;;5112263;28;20038;-64
2021/08/13 02:35:49;;;;;;;30.13;24.98;;;17.70;99.90;;;;;;5093665;28;20530;-65
2021/08/13 02:38:26;;;;;;;27.38;24.42;;;17.80;99.90;;;;;;5112453;28;20027;-64
2021/08/13 02:40:59;;;;;;;29.13;25.02;;;17.80;99.90;;;;;;5094391;28;20445;-65
2021/08/13 02:43:28;;;;;;;29.50;24.98;;;17.80;99.90;;;;;;5112426;28;20034;-65
2021/08/13 02:45:56;;;;;;;29.80;26.08;;;17.80;99.90;;;;;;5111678;28;20047;-64
2021/08/13 02:48:23;;;;;;;29.40;26.13;;;17.90;99.90;;;;;;5112227;28;20024;-65
2021/08/13 02:50:50;;;;;;;30.25;25.98;;;18.10;99.90;;;;;;5112149;28;20114;-65
2021/08/13 02:53:19;;;;;;;31.07;24.90;;;18.20;99.90;;;;;;5112052;28;20459;-65
2021/08/13 02:56:04;;;;;;;29.77;24.67;;;18.10;99.90;;;;;;5110776;28;20084;-64
2021/08/13 02:58:46;;;;;;;28.23;24.45;;;18.10;99.90;;;;;;5093656;28;20055;-64
2021/08/13 03:01:14;;;;;;;27.63;23.08;;;18.00;99.90;;;;;;5094084;28;20019;-65
2021/08/13 03:03:42;;;;;;;27.75;23.45;;;18.00;99.90;;;;;;5112022;28;20064;-64
2021/08/13 03:06:10;;;;;;;28.23;23.00;;;18.00;99.90;;;;;;5111476;28;20070;-64
2021/08/13 03:08:36;;;;;;;31.65;23.65;;;18.00;99.90;;;;;;5112128;28;20023;-64
2021/08/13 03:11:04;;;;;;;26.95;23.30;;;18.00;99.90;;;;;;5112256;28;20024;-64
2021/08/13 03:13:31;;;;;;;27.63;23.05;;;17.90;99.90;;;;;;5093892;28;20462;-64
2021/08/13 03:15:57;;;;;;;27.90;22.92;;;17.80;99.90;;;;;;5111804;28;20056;-65
2021/08/13 03:18:24;;;;;;;27.98;23.02;;;17.80;99.90;;;;;;5093991;28;20020;-65
2021/08/13 03:20:51;;;;;;;29.55;22.85;;;17.70;99.90;;;;;;5112000;28;20024;-65
2021/08/13 03:23:17;;;;;;;29.02;23.95;;;17.60;99.90;;;;;;5110310;28;20019;-65
2021/08/13 03:25:44;;;;;;;27.92;23.27;;;17.70;99.90;;;;;;5111293;28;20027;-65
2021/08/13 03:28:10;;;;;;;28.38;22.25;;;17.60;99.90;;;;;;5093628;28;20479;-65
2021/08/13 03:30:43;;;;;;;26.65;22.17;;;17.60;99.90;;;;;;5111994;28;20030;-64
2021/08/13 03:33:10;;;;;;;28.20;22.25;;;17.50;99.90;;;;;;5093511;28;20450;-65
2021/08/13 03:35:37;;;;;;;31.35;24.42;;;17.50;99.90;;;;;;5111166;28;20467;-64
2021/08/13 03:38:03;;;;;;;28.17;22.98;;;17.40;99.90;;;;;;5093551;28;20081;-65
2021/08/13 03:40:29;;;;;;;26.27;23.25;;;17.40;99.90;;;;;;5093653;28;20425;-64
2021/08/13 03:42:54;;;;;;;31.17;25.77;;;17.40;99.90;;;;;;5111888;28;20067;-65
2021/08/13 03:45:21;;;;;;;27.42;24.42;;;17.40;99.90;;;;;;5110805;28;20384;-65
2021/08/13 03:47:46;;;;;;;29.55;23.10;;;17.40;99.90;;;;;;5111659;28;20024;-65
2021/08/13 03:50:12;;;;;;;29.48;24.60;;;17.40;99.90;;;;;;5093506;28;20023;-65
2021/08/13 03:52:39;;;;;;;29.02;23.30;;;17.50;99.90;;;;;;5111539;28;20042;-65
2021/08/13 03:55:05;;;;;;;29.20;23.80;;;17.50;99.90;;;;;;5111560;28;20360;-64
2021/08/13 03:57:31;;;;;;;29.88;24.13;;;17.60;99.90;;;;;;5111345;28;20108;-64
2021/08/13 03:59:57;;;;;;;29.85;24.15;;;17.50;99.90;;;;;;5111662;28;20024;-65
2021/08/13 04:02:22;;;;;;;27.77;23.73;;;17.60;99.90;;;;;;5093389;28;20519;-64
2021/08/13 04:04:48;;;;;;;31.02;24.05;;;17.60;99.90;;;;;;5111359;28;20063;-65
2021/08/13 04:07:13;;;;;;;29.55;24.23;;;17.60;99.90;;;;;;5112735;28;20043;-65
2021/08/13 04:09:39;;;;;;;28.52;25.00;;;17.60;99.90;;;;;;5115389;28;20031;-65
2021/08/13 04:12:05;;;;;;;28.70;25.60;;;17.60;99.90;;;;;;5097182;28;20023;-63
2021/08/13 04:14:31;;;;;;;29.83;24.38;;;17.60;99.90;;;;;;5115323;28;20019;-65
2021/08/13 04:16:57;;;;;;;28.92;24.30;;;17.50;99.90;;;;;;5114328;28;20028;-65
2021/08/13 04:19:22;;;;;;;29.90;24.67;;;17.60;99.90;;;;;;5115172;28;20470;-65
2021/08/13 04:21:48;;;;;;;29.58;24.80;;;17.50;99.90;;;;;;5114940;28;20476;-64
2021/08/13 04:24:13;;;;;;;27.83;24.23;;;17.50;99.90;;;;;;5094942;28;20122;-65
2021/08/13 04:26:39;;;;;;;33.20;25.52;;;17.40;99.90;;;;;;5114327;28;20019;-65
2021/08/13 04:29:05;;;;;;;29.02;24.20;;;17.40;99.90;;;;;;5115112;28;20028;-65
2021/08/13 04:31:30;;;;;;;27.50;23.80;;;17.40;99.90;;;;;;5096666;28;20028;-65
2021/08/13 04:33:56;;;;;;;30.48;25.35;;;17.30;99.90;;;;;;5114968;28;20517;-65
2021/08/13 04:36:21;;;;;;;28.73;25.23;;;17.30;99.90;;;;;;5114083;28;20035;-64
2021/08/13 04:38:47;;;;;;;31.02;24.30;;;17.30;99.90;;;;;;5114715;28;20016;-66
2021/08/13 04:41:12;;;;;;;28.88;24.35;;;17.30;99.90;;;;;;5095046;28;20106;-66
2021/08/13 04:43:38;;;;;;;30.92;26.05;;;17.30;99.90;;;;;;5114115;28;20023;-66
2021/08/13 04:46:04;;;;;;;31.83;25.08;;;17.30;99.90;;;;;;5113840;28;20020;-66
2021/08/13 04:48:29;;;;;;;31.33;26.48;;;17.30;99.90;;;;;;5096195;28;20111;-66
2021/08/13 04:50:55;;;;;;;31.75;26.08;;;17.20;99.90;;;;;;5114583;28;20148;-66
2021/08/13 04:53:20;;;;;;;29.13;24.88;;;17.20;99.90;;;;;;5114212;28;20034;-66
2021/08/13 04:55:46;;;;;;;29.85;25.92;;;17.30;99.90;;;;;;5113299;28;20030;-66
2021/08/13 04:58:12;;;;;;;30.10;25.77;;;17.30;99.90;;;;;;5095723;28;20031;-66
2021/08/13 05:00:37;;;;;;;30.85;24.70;;;17.30;99.90;;;;;;5095980;28;20027;-65
2021/08/13 05:03:04;;;;;;;30.45;23.85;;;17.40;99.90;;;;;;5113838;28;20045;-66
2021/08/13 05:05:30;;;;;;;30.65;24.38;;;17.40;99.90;;;;;;5113352;28;20098;-65
2021/08/13 05:07:55;;;;;;;36.03;29.85;;;17.40;99.90;;;;;;5096011;28;20522;-66
2021/08/13 05:10:21;;;;;;;33.63;27.15;;;17.50;99.90;;;;;;5113883;28;20051;-66
2021/08/13 05:12:46;;;;;;;31.17;25.92;;;17.40;99.90;;;;;;5095555;28;20505;-66
2021/08/13 05:15:13;;;;;;;32.50;24.98;;;17.40;99.90;;;;;;5113160;28;20062;-66
2021/08/13 05:17:39;;;;;;;30.65;24.77;;;17.50;99.90;;;;;;5095045;28;20024;-66
2021/08/13 05:20:06;;;;;;;34.53;29.80;;;17.50;99.90;;;;;;5113158;28;20034;-66
2021/08/13 05:22:34;;;;;;;31.40;25.42;;;17.60;99.90;;;;;;5095367;28;20076;-67
2021/08/13 05:25:05;;;;;;;33.87;26.17;;;17.70;99.90;;;;;;5093463;28;20020;-66
2021/08/13 05:27:31;;;;;;;35.88;27.75;;;17.80;99.90;;;;;;5094865;28;20269;-67
2021/08/13 05:29:56;;;;;;;34.08;25.70;;;17.90;99.90;;;;;;5113350;28;20506;-66
2021/08/13 05:32:23;;;;;;;35.17;27.70;;;18.00;99.90;;;;;;5095202;28;20040;-67
2021/08/13 05:34:48;;;;;;;36.90;27.50;;;18.00;99.90;;;;;;5113620;28;20043;-69
2021/08/13 05:37:14;;;;;;;31.65;25.63;;;;;;;;;;5094971;28;20034;-69
2021/08/13 05:39:40;;;;;;;36.25;27.15;;;;;;;;;;5095858;28;20058;-68
2021/08/13 05:42:06;;;;;;;34.47;25.55;;;;;;;;;;5114511;28;20069;-68
2021/08/13 05:44:32;;;;;;;34.60;26.02;;;;;;;;;;5114025;28;20026;-67
2021/08/13 05:46:58;;;;;;;36.65;27.20;;;;;;;;;;5095943;28;20031;-67
2021/08/13 05:49:24;;;;;;;31.35;24.88;;;;;;;;;;5113759;28;20028;-66
2021/08/13 05:51:50;;;;;;;31.35;25.77;;;;;;;;;;5094659;28;20186;-67
2021/08/13 05:54:16;;;;;;;31.35;23.98;;;;;;;;;;5094471;28;20028;-66
2021/08/13 05:56:42;;;;;;;30.90;24.48;;;;;;;;;;5113027;28;20066;-66
2021/08/13 05:59:08;;;;;;;32.60;28.55;;;;;;;;;;5094775;28;20024;-66
2021/08/13 06:01:34;;;;;;;33.20;25.83;;;;;;;;;;5113509;28;20084;-67
2021/08/13 06:04:00;;;;;;;32.78;25.73;;;;;;;;;;5133531;22;20039;-65
2021/08/13 06:06:27;;;;;;;31.90;24.60;;;;;;;;;;5093083;28;20065;-64
2021/08/13 06:08:53;;;;;;;27.83;24.83;;;;;;;;;;5112149;28;20022;-65
2021/08/13 06:11:19;;;;;;;30.17;25.13;;;;;;;;;;5093979;28;20088;-65
2021/08/13 06:13:45;;;;;;;30.15;25.02;;;;;;;;;;5112031;28;20028;-65
2021/08/13 06:16:11;;;;;;;28.30;24.35;;;;;;;;;;5111055;28;20020;-65
2021/08/13 06:18:37;;;;;;;27.70;23.98;;;;;;;;;;5111889;28;20116;-64
2021/08/13 06:21:04;;;;;;;27.85;24.13;;;;;;;;;;5093578;28;20360;-65
2021/08/13 06:23:30;;;;;;;27.50;24.42;;;;;;;;;;5111386;28;20016;-64
2021/08/13 06:25:55;;;;;;;26.52;23.73;;;;;;;;;;5092630;28;20066;-65
2021/08/13 06:28:21;;;;;;;28.48;24.70;;;;;;;;;;5111103;28;20023;-65
2021/08/13 06:30:47;;;;;;;30.45;25.20;;;;;;;;;;5111010;28;20476;-66
2021/08/13 06:33:14;;;;;;;30.23;23.42;;;;;;;;;;5111676;28;20023;-65
2021/08/13 06:35:40;;;;;;;32.30;26.00;;;;;;;;;;5092590;28;20118;-66
2021/08/13 06:38:06;;;;;;;28.90;24.05;;;;;;;;;;5111474;28;20403;-65
2021/08/13 06:40:32;;;;;;;30.52;24.63;;;;;;;;;;5093156;28;20073;-65
2021/08/13 06:42:58;;;;;;;28.00;24.33;;;;;;;;;;5111395;28;20050;-64
2021/08/13 06:45:24;;;;;;;31.88;24.40;;;;;;;;;;5110615;28;20023;-64
2021/08/13 06:47:51;;;;;;;31.73;23.73;;;;;;;;;;5093274;28;20027;-63
2021/08/13 06:50:17;;;;;;;32.20;24.35;;;;;;;;;;5111079;28;20090;-65
2021/08/13 06:52:43;;;;;;;27.98;23.50;;;;;;;;;;5092857;28;20032;-65
2021/08/13 06:55:10;;;;;;;30.85;25.02;;;;;;;;;;5110488;28;20020;-65
2021/08/13 06:57:36;;;;;;;27.10;23.55;;;;;;;;;;5110881;28;20490;-65
2021/08/13 07:00:06;;;;;;;31.92;24.17;;;;;;;;;;5111614;28;20024;-65
2021/08/13 07:02:32;;;;;;;28.77;23.48;;;;;;;;;;5111532;28;20422;-65
2021/08/13 07:04:58;;;;;;;29.45;25.10;;;;;;;;;;5110812;28;20032;-64
2021/08/13 07:07:24;;;;;;;28.92;24.90;;;;;;;;;;5110404;28;20121;-65
2021/08/13 07:09:50;;;;;;;26.73;23.80;;;;;;;;;;5111099;28;20057;-64
2021/08/13 07:12:16;;;;;;;29.20;24.38;;;;;;;;;;5111083;28;20197;-64
2021/08/13 07:14:42;;;;;;;28.58;22.95;;;;;;;;;;5109234;28;20020;-65
2021/08/13 07:17:09;;;;;;;27.35;23.40;;;;;;;;;;5109108;28;20626;-65
2021/08/13 07:19:35;;;;;;;29.17;23.83;;;;;;;;;;5109259;28;20109;-63
2021/08/13 07:22:01;;;;;;;31.83;26.10;;;;;;;;;;5109185;28;20015;-64
2021/08/13 07:24:27;;;;;;;28.02;24.73;;;;;;;;;;5108985;28;20023;-65
2021/08/13 07:26:53;;;;;;;28.35;25.25;;;;;;;;;;5090203;28;20030;-65
2021/08/13 07:29:21;;;;;;;29.00;25.90;;;;;;;;;;5108717;28;20060;-65
2021/08/13 07:31:47;;;;;;;28.80;24.80;;;;;;;;;;5109648;28;20080;-65
2021/08/13 07:34:13;;;;;;;30.95;25.48;;;;;;;;;;5110605;28;20106;-64
2021/08/13 07:36:39;;;;;;;29.48;25.50;;;;;;;;;;5109718;28;20035;-65
2021/08/13 07:39:05;;;;;;;28.52;25.63;;;;;;;;;;5092093;28;20115;-64
2021/08/13 07:41:31;;;;;;;29.88;24.77;;;;;;;;;;5111132;28;20467;-64
2021/08/13 07:43:57;;;;;;;31.10;25.75;;;;;;;;;;5114231;28;20206;-64
2021/08/13 07:46:23;;;;;;;28.50;24.33;;;;;;;;;;5114088;28;20108;-65
2021/08/13 07:48:49;;;;;;;30.02;26.55;;;;;;;;;;5114490;28;20094;-66
2021/08/13 07:51:17;;;;;;;29.23;26.05;;;;;;;;;;5114387;28;20351;-63
2021/08/13 07:53:43;;;;;;;30.25;26.98;;;;;;;;;;5114417;28;20472;-63
2021/08/13 07:56:09;;;;;;;29.88;26.50;;;;;;;;;;5095871;28;20028;-64
2021/08/13 07:58:36;;;;;;;30.88;27.33;;;;;;;;;;5114438;28;20391;-64
2021/08/13 08:01:03;;;;;;;31.27;28.02;;;;;;;;;;5096075;28;20103;-62
2021/08/13 08:03:29;;;;;;;31.50;28.10;;;;;;;;;;5114130;28;20460;-61
2021/08/13 08:05:55;;;;;;;30.83;27.15;;;;;;;;;;5113568;28;20479;-64
2021/08/13 08:08:20;;;;;;;31.52;27.73;;;;;;;;;;5095843;28;20080;-64
2021/08/13 08:10:47;;;;;;;32.45;28.00;;;;;;;;;;5113912;28;20495;-65
2021/08/13 08:13:17;;;;;;;40.42;29.52;;;;;;;;;;5114079;28;20034;-64
2021/08/13 08:15:45;;;;;;;33.17;28.98;;;;;;;;;;5093490;28;20023;-64
2021/08/13 08:18:11;;;;;;;32.95;29.33;;;;;;;;;;5114224;28;20032;-63
2021/08/13 08:20:37;;;;;;;31.83;27.95;;;;;;;;;;5095702;28;20149;-65
2021/08/13 08:23:03;;;;;;;32.88;29.38;;;;;;;;;;5095942;28;20024;-64
2021/08/13 08:25:29;;;;;;;38.00;29.20;;;;;;;;;;5113430;28;20027;-63
2021/08/13 08:27:56;;;;;;;32.22;28.73;;;;;;;;;;5114146;28;20032;-64
2021/08/13 08:30:22;;;;;;;30.90;27.60;;;;;;;;;;5113733;28;20024;-65
2021/08/13 08:32:48;;;;;;;31.17;27.85;;;;;;;;;;5113595;28;20106;-63
2021/08/13 08:35:14;;;;;;;32.47;28.98;;;;;;;;;;5112599;28;20069;-65
2021/08/13 08:38:00;;;;;;;31.75;27.63;;;;;;;;;;5113455;28;20500;-65
2021/08/13 08:40:28;;;;;;;32.08;28.55;;;;;;;;;;5095070;28;20024;-64
2021/08/13 08:42:58;;;;;;;33.13;29.52;;;;;;;;;;5113291;28;20019;-65
2021/08/13 08:45:25;;;;;;;32.40;29.10;;;;;;;;;;5112455;28;20035;-64
2021/08/13 08:47:53;;;;;;;34.25;30.65;;;;;;;;;;5094898;28;20055;-65
2021/08/13 08:50:20;;;;;;;33.88;30.25;;;;;;;;;;5113151;28;20032;-65
2021/08/13 08:52:46;;;;;;;33.97;30.45;;;;;;;;;;5112655;28;20498;-64
2021/08/13 08:55:12;;;;;;;33.97;30.20;;;;;;;;;;5111618;28;20050;-64
2021/08/13 08:57:40;;;;;;;35.65;30.27;;;;;;;;;;5112774;28;20458;-64
2021/08/13 09:00:07;;;;;;;35.65;30.58;;;;;;;;;;5112901;28;20073;-63
2021/08/13 09:02:33;;;;;;;36.17;30.77;;;;;;;;;;5112914;28;20059;-62
2021/08/13 09:04:59;;;;;;;36.15;31.92;;;;;;;;;;5093941;28;20071;-65
2021/08/13 09:07:26;;;;;;;37.58;31.67;;;;;;;;;;5112205;28;20476;-64
2021/08/13 09:09:52;;;;;;;34.33;30.63;;;;;;;;;;5094574;28;20027;-64
2021/08/13 09:12:18;;;;;;;32.10;28.60;;;;;;;;;;5112571;28;20027;-63
2021/08/13 09:14:44;;;;;;;33.60;30.05;;;;;;;;;;5111661;28;20024;-65
2021/08/13 09:17:11;;;;;;;33.20;29.08;;;;;;;;;;5112037;28;20023;-64
2021/08/13 09:19:39;;;;;;;36.17;31.15;;;;;;;;;;5112599;28;20028;-64
2021/08/13 09:22:14;;;;;;;36.58;30.45;;;;;;;;;;5094143;28;20543;-63
2021/08/13 09:24:41;;;;;;;32.80;29.08;;;;;;;;;;5112468;28;20023;-62
2021/08/13 09:27:16;;;;;;;32.13;28.70;;;;;;;;;;5111986;28;20028;-65
2021/08/13 09:30:02;;;;;;;32.55;29.13;;;;;;;;;;5094235;28;20028;-64
2021/08/13 09:32:28;;;;;;;33.47;29.88;;;;;;;;;;5094225;28;20031;-62
2021/08/13 09:34:55;;;;;;;30.95;27.48;;;;;;;;;;5094701;28;20031;-64
2021/08/13 09:37:21;;;;;;;31.45;28.02;;;;;;;;;;5111705;28;20061;-64
2021/08/13 09:39:52;;;;;;;32.15;28.25;;;;;;;;;;5112055;28;20508;-63
2021/08/13 09:42:18;;;;;;;32.65;29.10;;;;;;;;;;5094050;28;20054;-63
2021/08/13 09:44:44;;;;;;;33.17;29.00;;;;;;;;;;5111801;28;20055;-64
2021/08/13 09:47:11;;;;;;;31.70;27.90;;;;;;;;;;5093620;28;20043;-65
2021/08/13 09:49:39;;;;;;;31.38;27.98;;;;;;;;;;5112087;28;20245;-64
2021/08/13 09:52:12;;;;;;;32.83;27.13;;;;;;;;;;5111627;28;20023;-64
2021/08/13 09:54:38;;;;;;;30.05;26.90;;;;;;;;;;5111918;28;20483;-65
2021/08/13 09:57:11;;;;;;;30.15;26.95;;;;;;;;;;5111214;28;20046;-66
2021/08/13 09:59:37;;;;;;;31.40;28.13;;;;;;;;;;5112113;28;20027;-64
2021/08/13 10:02:11;;;;;;;32.75;29.20;;;;;;;;;;5111825;28;20539;-62
2021/08/13 10:04:37;;;;;;;30.52;27.25;;;;;;;;;;5111027;28;20081;-64
2021/08/13 10:07:04;;;;;;;32.45;28.90;;;;;;;;;;5110933;28;20043;-64
2021/08/13 10:09:30;;;;;;;30.42;27.33;;;;;;;;;;5111558;28;20047;-64
2021/08/13 10:11:57;;;;;;;31.73;28.40;;;;;;;;;;5111469;28;20364;-64
2021/08/13 10:14:34;;;;;;;33.10;28.80;;;;;;;;;;5111601;28;20031;-65
2021/08/13 10:17:19;;;;;;;30.75;27.48;;;;;;;;;;5091498;28;20031;-65
2021/08/13 10:19:50;;;;;;;33.92;29.75;;;;;;;;;;5111366;28;20023;-64
2021/08/13 10:22:16;;;;;;;30.35;27.17;;;;;;;;;;5111136;28;20099;-62
2021/08/13 10:24:43;;;;;;;31.52;28.33;;;;;;;;;;5110620;28;20050;-63
2021/08/13 10:27:10;;;;;;;31.40;28.23;;;;;;;;;;5091780;28;20028;-65
2021/08/13 10:29:36;;;;;;;30.88;27.65;;;;;;;;;;5110693;28;20539;-64
2021/08/13 10:32:02;;;;;;;28.90;25.85;;;;;;;;;;5110847;28;20107;-65
2021/08/13 10:34:29;;;;;;;28.35;25.45;;;;;;;;;;5092258;28;20027;-65
2021/08/13 10:36:55;;;;;;;30.13;26.70;;;;;;;;;;5110337;28;20073;-64
2021/08/13 10:39:22;;;;;;;31.42;26.42;;;;;;;;;;5110948;28;20064;-65
2021/08/13 10:41:50;;;;;;;30.45;27.23;;;;;;;;;;5110872;28;20563;-64
2021/08/13 10:44:18;;;;;;;31.85;28.55;;;;;;;;;;5110428;28;20050;-66
2021/08/13 10:46:45;;;;;;;32.78;29.45;;;;;;;;;;5110373;28;20098;-63
2021/08/13 10:49:12;;;;;;;32.38;28.85;;;;;;;;;;5110971;28;20027;-63
2021/08/13 10:51:38;;;;;;;35.37;29.03;;;;;;;;;;5110626;28;20103;-64
2021/08/13 10:54:08;;;;;;;33.85;29.77;;;;;;;;;;5110612;28;20269;-66
2021/08/13 10:56:42;;;;;;;32.88;29.30;;;;;;;;;;5109803;28;20031;-66
2021/08/13 10:59:08;;;;;;;33.60;28.40;;;;;;;;;;5110603;28;20471;-63
2021/08/13 11:01:34;;;;;;;34.88;31.10;;;;;;;;;;5110561;28;20016;-64
2021/08/13 11:04:00;;;;;;;30.58;27.35;;;;;;;;;;5110551;28;20035;-64
2021/08/13 11:06:38;;;;;;;30.65;27.40;;;;;;;;;;5109898;28;20030;-63
2021/08/13 11:09:05;;;;;;;30.67;27.48;;;;;;;;;;5110657;28;20016;-65
2021/08/13 11:11:57;;;;;;;31.15;27.90;;;;;;;;;;5110427;28;20019;-65
2021/08/13 11:14:26;;;;;;;31.63;28.40;;;;;;;;;;5110849;28;20462;-65
2021/08/13 11:16:52;;;;;;;32.28;28.08;;;;;;;;;;5109718;28;20024;-64
2021/08/13 11:19:21;;;;;;;31.55;28.17;;;;;;;;;;5114568;28;20106;-66
2021/08/13 11:21:49;;;;;;;32.03;28.30;;;;;;;;;;5114666;28;20035;-67
2021/08/13 11:24:15;;;;;;;30.10;26.85;;;;;;;;;;5096052;28;20016;-64
2021/08/13 11:26:50;;;;;;;31.40;28.20;;;;;;;;;;5095412;28;20333;-64
2021/08/13 11:29:29;;;;;;;28.23;25.23;;;;;;;;;;5114183;28;20088;-65
2021/08/13 11:31:55;;;;;;;;;;;;;;;;;;5114977;28;20069;-61
2021/08/13 11:34:39;;;;;;;25.95;23.20;;;;;;;;;;5096202;28;19904;-65
2021/08/13 11:37:05;;;;;;;24.73;22.23;;;;;;;;;;5113537;28;20103;-65
2021/08/13 11:39:36;;;;;;;24.27;21.67;;;;;;;;;;5114274;28;20100;-65
2021/08/13 11:42:09;;;;;;;25.63;22.20;;;;;;;;;;5114419;28;20020;-65
2021/08/13 11:44:36;;;;;;;24.35;21.63;;;;;;;;;;5114127;28;20015;-66
2021/08/13 11:47:03;;;;;;;22.70;20.30;;;;;;;;;;5095362;28;20099;-62
2021/08/13 11:49:29;;;;;;;22.75;20.25;;;;;;;;;;5095908;28;20415;-65
2021/08/13 11:51:55;;;;;;;21.67;19.23;;;;;;;;;;5114192;28;20070;-63
2021/08/13 11:54:26;;;;;;;21.75;19.27;;;;;;;;;;5095969;28;20067;-63
2021/08/13 11:56:52;;;;;;;21.35;19.15;;;;;;;;;;5113006;28;20089;-64
2021/08/13 11:59:18;;;;;;;21.65;19.35;;;;;;;;;;5095333;28;20024;-65
2021/08/13 12:01:51;;;;;;;21.65;19.35;;;;;;;;;;5113801;28;20023;-63
2021/08/13 12:04:17;;;;;;;20.77;18.63;;;;;;;;;;5127168;22;20067;-65
2021/08/13 12:06:58;;;;;;;22.38;19.02;;;;;;;;;;5094449;28;20524;-65
2021/08/13 12:09:35;;;;;;;20.40;18.20;;;;;;;;;;5095149;28;20046;-63
2021/08/13 12:12:02;;;;;;;21.75;18.63;;;;;;;;;;5095028;28;20023;-60
2021/08/13 12:14:28;;;;;;;21.13;18.83;;;;;;;;;;5094930;28;20108;-64
2021/08/13 12:16:54;;;;;;;20.58;18.48;;;;;;;;;;5093132;28;20051;-63
2021/08/13 12:19:21;;;;;;;20.70;18.60;;;;;;;;;;5095129;28;20536;-65
2021/08/13 12:22:04;;;;;;;23.30;19.20;;;;;;;;;;5095058;28;20373;-63
2021/08/13 12:24:30;;;;;;;20.90;18.50;;;;;;;;;;5094537;28;20031;-63
2021/08/13 12:27:01;;;;;;;21.15;19.00;;;;;;;;;;5094709;28;20103;-64
2021/08/13 12:29:31;;;;;;;20.55;18.45;;;;;;;;;;5092870;28;20024;-64
2021/08/13 12:31:58;;;;;;;20.55;18.35;;;;;;;;;;5094955;28;20036;-64
2021/08/13 12:34:25;;;;;;;21.00;18.90;;;;;;;;;;5092993;28;20035;-64
2021/08/13 12:37:04;;;;;;;20.03;17.93;;;;;;;;;;5093721;28;20031;-64
2021/08/13 12:39:31;;;;;;;20.05;18.05;;;;;;;;;;5092849;28;20070;-64
2021/08/13 12:41:57;;;;;;;20.55;17.73;;;;;;;;;;5092609;28;20513;-63
2021/08/13 12:44:23;;;;;;;20.25;18.15;;;;;;;;;;5094183;28;20039;-62
2021/08/13 12:46:50;;;;;;;20.70;18.50;;;;;;;;;;5094106;28;20090;-65
2021/08/13 12:49:18;;;;;;;19.90;17.90;;;;;;;;;;5092589;28;20059;-63
2021/08/13 12:51:44;;;;;;;20.05;17.98;;;;;;;;;;5093010;28;20438;-64
2021/08/13 12:54:29;;;;;;;19.92;17.92;;;;;;;;;;5092489;28;20028;-64
2021/08/13 12:56:58;;;;;;;20.08;17.65;;;;;;;;;;5093189;28;20024;-65
2021/08/13 12:59:31;;;;;;;19.35;17.25;;;;;;;;;;5092257;28;20122;-64
2021/08/13 13:01:58;;;;;;;19.30;17.30;;;;;;;;;;5093445;28;20024;-64
2021/08/13 13:04:36;;;;;;;19.20;17.27;;;;;;;;;;5093362;28;20468;-65
2021/08/13 13:07:03;;;;;;;18.80;16.90;;;;;;;;;;5091779;28;20085;-66
2021/08/13 13:09:30;;;;;;;18.42;16.52;;;;;;;;;;5093565;28;20031;-64
2021/08/13 13:12:14;;;;;;;18.63;16.73;;;;;;;;;;5092190;28;20024;-64
2021/08/13 13:14:41;;;;;;;19.85;16.92;;;;;;;;;;5090202;28;20024;-64
2021/08/13 13:17:08;;;;;;;19.38;17.38;;;;;;;;;;5091481;28;20468;-64
2021/08/13 13:19:34;;;;;;;19.20;17.17;;;;;;;;;;5091799;28;20023;-63
2021/08/13 13:22:16;;;;;;;19.15;17.15;;;;;;;;;;5091780;28;20130;-63
2021/08/13 13:24:42;;;;;;;18.85;16.95;;;;;;;;;;5093224;28;20290;-63
2021/08/13 13:27:08;;;;;;;19.20;17.20;;;;;;;;;;5091415;28;20020;-65
2021/08/13 13:29:36;;;;;;;19.40;16.90;;;;;;;;;;5092626;28;20053;-62
2021/08/13 13:32:19;;;;;;;18.73;16.73;;;;;;;;;;5092906;28;20028;-64
2021/08/13 13:34:55;;;;;;;18.65;16.75;;;;;;;;;;5092998;28;20028;-64
2021/08/13 13:37:21;;;;;;;18.92;16.90;;;;;;;;;;5092079;28;20445;-65